Time;durP1;ratioP1;P1;durP2;ratioP2;P2;SDS_P1;SDS_P2;PMS_P1;PMS_P2;Temp;Humidity;BMP_temperature;BMP_pressure;BME280_temperature;BME280_humidity;BME280_pressure;Samples;Min_cycle;Max_cycle;Signal;HPM_P1;HPM_P2
2021/03/02 00:00:34;;;;;;;;;;;18.80;38.90;;;;;;477098;249;1054;-54
2021/03/02 00:02:35;;;;;;;;;;;18.80;38.80;;;;;;477040;249;1133;-54
2021/03/02 00:04:36;;;;;;;;;;;18.80;37.50;;;;;;477073;249;2191;-54
2021/03/02 00:06:37;;;;;;;;;;;18.80;38.80;;;;;;477298;249;1065;-54
2021/03/02 00:08:39;;;;;;;;;;;18.80;38.70;;;;;;477166;249;1106;-54
2021/03/02 00:10:42;;;;;;;;;;;18.80;38.80;;;;;;477090;250;1147;-53
2021/03/02 00:12:42;;;;;;;;;;;18.90;38.80;;;;;;476997;249;1940;-53
2021/03/02 00:14:43;;;;;;;;;;;18.80;38.70;;;;;;477122;249;1180;-54
2021/03/02 00:16:44;;;;;;;;;;;18.80;37.40;;;;;;477178;249;1057;-53
2021/03/02 00:18:45;;;;;;;;;;;18.90;38.70;;;;;;477189;249;1105;-54
2021/03/02 00:20:47;;;;;;;;;;;18.90;38.70;;;;;;477224;249;1215;-54
2021/03/02 00:22:48;;;;;;;;;;;18.90;38.70;;;;;;477270;249;1097;-54
2021/03/02 00:24:49;;;;;;;;;;;18.90;38.60;;;;;;477147;249;2140;-54
2021/03/02 00:26:50;;;;;;;;;;;18.90;38.60;;;;;;477129;249;1190;-54
2021/03/02 00:28:52;;;;;;;;;;;18.90;38.60;;;;;;477116;249;1054;-54
2021/03/02 00:30:53;;;;;;;;;;;19.00;38.70;;;;;;477207;249;1248;-54
2021/03/02 00:32:54;;;;;;;;;;;19.00;38.60;;;;;;477465;249;1164;-54
2021/03/02 00:34:56;;;;;;;;;;;19.00;38.60;;;;;;477139;250;1408;-53
2021/03/02 00:36:57;;;;;;;;;;;19.00;38.60;;;;;;477070;249;1151;-54
2021/03/02 00:38:58;;;;;;;;;;;19.00;38.60;;;;;;477389;249;969;-54
2021/03/02 00:40:59;;;;;;;;;;;19.00;38.60;;;;;;477227;249;1325;-54
2021/03/02 00:43:01;;;;;;;;;;;19.00;38.60;;;;;;477245;249;1218;-54
2021/03/02 00:45:02;;;;;;;;;;;19.00;38.60;;;;;;477180;249;2144;-54
2021/03/02 00:47:05;;;;;;;;;;;19.00;38.60;;;;;;477183;249;1046;-54
2021/03/02 00:49:06;;;;;;;;;;;19.00;38.50;;;;;;477176;250;1074;-54
2021/03/02 00:51:07;;;;;;;;;;;19.10;38.60;;;;;;477398;249;962;-54
2021/03/02 00:53:09;;;;;;;;;;;19.10;38.50;;;;;;477094;249;1058;-54
2021/03/02 00:55:10;;;;;;;;;;;19.10;38.50;;;;;;477234;249;1078;-54
2021/03/02 00:57:11;;;;;;;;;;;19.10;38.50;;;;;;477116;249;1192;-53
2021/03/02 00:59:12;;;;;;;;;;;19.10;38.50;;;;;;477086;250;1357;-54
2021/03/02 01:01:14;;;;;;;;;;;19.10;38.50;;;;;;477088;250;1358;-53
2021/03/02 01:03:15;;;;;;;;;;;19.10;38.50;;;;;;477161;249;1053;-53
2021/03/02 01:05:16;;;;;;;;;;;19.10;38.50;;;;;;477115;250;2148;-54
2021/03/02 01:07:18;;;;;;;;;;;19.10;38.40;;;;;;477111;249;1250;-54
2021/03/02 01:09:19;;;;;;;;;;;19.10;38.50;;;;;;477110;250;1244;-54
2021/03/02 01:11:20;;;;;;;;;;;19.10;38.40;;;;;;477237;249;1333;-54
2021/03/02 01:13:21;;;;;;;;;;;19.20;38.50;;;;;;477423;249;1063;-54
2021/03/02 01:15:23;;;;;;;;;;;19.20;38.40;;;;;;477134;250;1299;-54
2021/03/02 01:17:25;;;;;;;;;;;19.20;38.40;;;;;;477310;249;1099;-54
2021/03/02 01:19:26;;;;;;;;;;;19.20;38.40;;;;;;477329;249;1076;-54
2021/03/02 01:21:27;;;;;;;;;;;19.20;38.40;;;;;;477110;250;1222;-54
2021/03/02 01:23:29;;;;;;;;;;;19.20;38.40;;;;;;477197;249;1283;-54
2021/03/02 01:25:30;;;;;;;;;;;19.20;38.40;;;;;;477115;250;2140;-54
2021/03/02 01:27:31;;;;;;;;;;;19.20;38.40;;;;;;477157;249;1131;-54
2021/03/02 01:29:33;;;;;;;;;;;19.20;38.40;;;;;;477135;250;1391;-54
2021/03/02 01:31:34;;;;;;;;;;;19.20;38.40;;;;;;477298;249;972;-53
2021/03/02 01:33:36;;;;;;;;;;;19.20;38.30;;;;;;477155;250;993;-54
2021/03/02 01:35:37;;;;;;;;;;;19.20;38.30;;;;;;477104;249;1199;-54
2021/03/02 01:37:38;;;;;;;;;;;19.30;38.40;;;;;;477197;249;1116;-54
2021/03/02 01:39:39;;;;;;;;;;;19.20;38.30;;;;;;477173;249;1015;-54
2021/03/02 01:41:41;;;;;;;;;;;19.30;38.30;;;;;;477171;249;1209;-54
2021/03/02 01:43:42;;;;;;;;;;;19.30;38.30;;;;;;477160;249;1100;-54
2021/03/02 01:45:43;;;;;;;;;;;19.30;38.30;;;;;;477103;250;2195;-53
2021/03/02 01:47:44;;;;;;;;;;;19.30;38.30;;;;;;477108;250;1128;-54
2021/03/02 01:49:46;;;;;;;;;;;19.30;38.20;;;;;;477194;249;996;-54
2021/03/02 01:51:47;;;;;;;;;;;19.30;38.20;;;;;;477061;249;1378;-54
2021/03/02 01:53:48;;;;;;;;;;;19.30;38.30;;;;;;477116;250;1185;-53
2021/03/02 01:55:50;;;;;;;;;;;19.30;38.30;;;;;;477163;249;1132;-54
2021/03/02 01:57:51;;;;;;;;;;;19.30;38.20;;;;;;477171;249;1233;-54
2021/03/02 01:59:52;;;;;;;;;;;19.30;38.20;;;;;;477107;249;1069;-54
2021/03/02 02:01:53;;;;;;;;;;;19.30;38.20;;;;;;477073;250;1039;-54
2021/03/02 02:03:55;;;;;;;;;;;19.40;38.20;;;;;;477080;249;1112;-53
2021/03/02 02:05:56;;;;;;;;;;;19.30;38.20;;;;;;477085;249;2136;-54
2021/03/02 02:07:57;;;;;;;;;;;19.30;38.20;;;;;;477119;249;1000;-53
2021/03/02 02:09:59;;;;;;;;;;;19.40;38.20;;;;;;477101;249;1064;-54
2021/03/02 02:12:00;;;;;;;;;;;19.40;38.20;;;;;;477141;249;1161;-53
2021/03/02 02:14:01;;;;;;;;;;;19.40;38.20;;;;;;477178;249;1037;-54
2021/03/02 02:16:02;;;;;;;;;;;19.40;38.20;;;;;;477472;249;1048;-54
2021/03/02 02:18:04;;;;;;;;;;;19.40;38.20;;;;;;477213;249;1049;-53
2021/03/02 02:20:05;;;;;;;;;;;19.40;38.10;;;;;;477200;249;1061;-54
2021/03/02 02:22:06;;;;;;;;;;;19.40;38.20;;;;;;477144;249;1305;-54
2021/03/02 02:24:08;;;;;;;;;;;19.40;38.10;;;;;;477107;249;982;-54
2021/03/02 02:26:09;;;;;;;;;;;19.40;38.10;;;;;;477140;249;2155;-54
2021/03/02 02:28:10;;;;;;;;;;;19.40;38.10;;;;;;477200;249;1225;-53
2021/03/02 02:30:11;;;;;;;;;;;19.40;38.10;;;;;;477145;250;1057;-54
2021/03/02 02:32:13;;;;;;;;;;;19.50;38.20;;;;;;477119;250;1275;-54
2021/03/02 02:34:14;;;;;;;;;;;19.40;38.10;;;;;;477174;250;1081;-54
2021/03/02 02:36:15;;;;;;;;;;;19.50;38.10;;;;;;477163;249;1342;-53
2021/03/02 02:38:16;;;;;;;;;;;19.40;38.10;;;;;;477311;249;1139;-53
2021/03/02 02:40:18;;;;;;;;;;;19.40;38.10;;;;;;477239;249;1084;-53
2021/03/02 02:42:19;;;;;;;;;;;19.50;38.10;;;;;;477181;249;1261;-54
2021/03/02 02:44:20;;;;;;;;;;;19.50;38.10;;;;;;477117;250;1007;-54
2021/03/02 02:46:21;;;;;;;;;;;19.50;38.10;;;;;;477087;250;2195;-54
2021/03/02 02:48:23;;;;;;;;;;;19.50;38.10;;;;;;477064;250;1042;-54
2021/03/02 02:50:24;;;;;;;;;;;19.50;38.10;;;;;;477139;249;1067;-54
2021/03/02 02:52:25;;;;;;;;;;;19.50;38.10;;;;;;477136;249;1044;-54
2021/03/02 02:54:27;;;;;;;;;;;19.50;38.00;;;;;;477066;250;1087;-54
2021/03/02 02:56:28;;;;;;;;;;;19.50;38.10;;;;;;477194;249;1063;-54
2021/03/02 02:58:29;;;;;;;;;;;19.50;38.00;;;;;;477246;249;1124;-54
2021/03/02 03:00:30;;;;;;;;;;;19.50;38.00;;;;;;477229;249;1100;-54
2021/03/02 03:02:32;;;;;;;;;;;19.50;38.00;;;;;;477308;249;1051;-54
2021/03/02 03:04:33;;;;;;;;;;;19.50;38.00;;;;;;477126;250;1067;-54
2021/03/02 03:06:34;;;;;;;;;;;19.50;38.00;;;;;;477113;250;2211;-54
2021/03/02 03:08:36;;;;;;;;;;;19.50;38.00;;;;;;477248;249;964;-53
2021/03/02 03:10:37;;;;;;;;;;;19.50;38.00;;;;;;477188;249;972;-54
2021/03/02 03:12:38;;;;;;;;;;;19.50;38.00;;;;;;477132;249;1190;-54
2021/03/02 03:14:39;;;;;;;;;;;19.50;38.00;;;;;;477157;249;1027;-54
2021/03/02 03:16:41;;;;;;;;;;;19.50;38.00;;;;;;477196;249;1079;-54
2021/03/02 03:18:42;;;;;;;;;;;19.50;38.00;;;;;;477128;250;994;-54
2021/03/02 03:20:43;;;;;;;;;;;19.60;38.00;;;;;;477115;249;1146;-54
2021/03/02 03:22:45;;;;;;;;;;;19.60;38.00;;;;;;477096;250;1124;-54
2021/03/02 03:24:46;;;;;;;;;;;19.60;38.00;;;;;;477249;249;1078;-54
2021/03/02 03:26:47;;;;;;;;;;;19.60;38.00;;;;;;477111;249;2132;-54
2021/03/02 03:28:48;;;;;;;;;;;19.60;38.00;;;;;;477260;249;1131;-54
2021/03/02 03:30:50;;;;;;;;;;;19.60;38.00;;;;;;477107;250;1038;-54
2021/03/02 03:32:51;;;;;;;;;;;19.60;38.00;;;;;;477164;250;1189;-54
2021/03/02 03:34:53;;;;;;;;;;;19.60;38.00;;;;;;477128;250;1078;-54
2021/03/02 03:36:54;;;;;;;;;;;19.60;38.00;;;;;;477137;249;1125;-54
2021/03/02 03:38:55;;;;;;;;;;;19.60;38.00;;;;;;477122;249;1126;-54
2021/03/02 03:40:56;;;;;;;;;;;19.60;38.00;;;;;;477087;249;1204;-53
2021/03/02 03:42:58;;;;;;;;;;;19.60;37.90;;;;;;477193;249;1173;-54
2021/03/02 03:44:59;;;;;;;;;;;19.60;38.00;;;;;;477371;249;1050;-54
2021/03/02 03:47:00;;;;;;;;;;;19.60;37.90;;;;;;477021;250;2210;-54
2021/03/02 03:49:02;;;;;;;;;;;19.60;37.90;;;;;;477125;250;1060;-54
2021/03/02 03:51:03;;;;;;;;;;;19.60;37.90;;;;;;477019;250;1336;-54
2021/03/02 03:53:04;;;;;;;;;;;19.60;37.90;;;;;;477131;249;1176;-54
2021/03/02 03:55:05;;;;;;;;;;;19.60;37.90;;;;;;477246;249;1057;-54
2021/03/02 03:57:07;;;;;;;;;;;19.60;37.90;;;;;;477061;249;1261;-54
2021/03/02 03:59:08;;;;;;;;;;;19.70;37.90;;;;;;477250;249;1151;-54
2021/03/02 04:01:09;;;;;;;;;;;19.70;37.90;;;;;;477120;249;1321;-54
2021/03/02 04:03:10;;;;;;;;;;;19.70;37.90;;;;;;477122;250;1188;-54
2021/03/02 04:05:12;;;;;;;;;;;19.60;37.90;;;;;;477112;249;1267;-54
2021/03/02 04:07:13;;;;;;;;;;;19.70;37.90;;;;;;477069;250;2132;-54
2021/03/02 04:09:14;;;;;;;;;;;19.70;37.90;;;;;;477180;249;1205;-54
2021/03/02 04:11:16;;;;;;;;;;;19.70;37.90;;;;;;477072;249;1334;-54
2021/03/02 04:13:17;;;;;;;;;;;19.70;37.90;;;;;;477148;250;1142;-53
2021/03/02 04:15:18;;;;;;;;;;;19.70;37.80;;;;;;477286;249;1019;-53
2021/03/02 04:17:19;;;;;;;;;;;19.70;37.80;;;;;;477056;249;1379;-54
2021/03/02 04:19:21;;;;;;;;;;;19.70;37.80;;;;;;477124;250;1086;-54
2021/03/02 04:21:22;;;;;;;;;;;19.70;37.90;;;;;;477159;249;1035;-54
2021/03/02 04:23:23;;;;;;;;;;;19.70;37.80;;;;;;477149;249;1125;-54
2021/03/02 04:25:25;;;;;;;;;;;19.70;37.80;;;;;;477104;250;1054;-54
2021/03/02 04:27:26;;;;;;;;;;;19.70;37.80;;;;;;477208;249;2152;-54
2021/03/02 04:29:27;;;;;;;;;;;19.70;37.80;;;;;;477119;250;1201;-54
2021/03/02 04:31:28;;;;;;;;;;;19.70;37.80;;;;;;477318;249;1055;-54
2021/03/02 04:33:30;;;;;;;;;;;19.70;37.80;;;;;;477076;250;1034;-54
2021/03/02 04:35:31;;;;;;;;;;;19.70;37.80;;;;;;477064;250;1089;-54
2021/03/02 04:37:32;;;;;;;;;;;19.70;37.80;;;;;;477052;250;1221;-54
2021/03/02 04:39:33;;;;;;;;;;;19.70;37.70;;;;;;477118;249;1022;-54
2021/03/02 04:41:35;;;;;;;;;;;19.70;36.40;;;;;;476963;250;1120;-54
2021/03/02 04:43:36;;;;;;;;;;;19.70;37.70;;;;;;477104;250;1178;-54
2021/03/02 04:45:37;;;;;;;;;;;19.70;37.80;;;;;;477185;249;1069;-53
2021/03/02 04:47:39;;;;;;;;;;;19.70;37.80;;;;;;477086;250;2207;-54
2021/03/02 04:49:40;;;;;;;;;;;19.80;37.80;;;;;;477106;250;1233;-54
2021/03/02 04:51:41;;;;;;;;;;;19.70;37.70;;;;;;477087;249;1312;-54
2021/03/02 04:53:42;;;;;;;;;;;19.70;37.80;;;;;;477085;249;1041;-54
2021/03/02 04:55:44;;;;;;;;;;;19.70;37.80;;;;;;477076;250;1052;-54
2021/03/02 04:57:45;;;;;;;;;;;19.80;37.80;;;;;;477101;249;1099;-53
2021/03/02 04:59:46;;;;;;;;;;;19.80;37.80;;;;;;477175;249;1162;-54
2021/03/02 05:01:48;;;;;;;;;;;19.80;37.80;;;;;;477009;249;1104;-53
2021/03/02 05:03:49;;;;;;;;;;;19.80;37.80;;;;;;477020;250;1105;-54
2021/03/02 05:05:50;;;;;;;;;;;19.80;37.80;;;;;;477104;249;1001;-54
2021/03/02 05:07:51;;;;;;;;;;;19.80;37.80;;;;;;477016;249;2219;-53
2021/03/02 05:09:53;;;;;;;;;;;19.80;37.80;;;;;;477141;249;1073;-54
2021/03/02 05:11:54;;;;;;;;;;;19.80;37.80;;;;;;477049;249;1144;-54
2021/03/02 05:13:55;;;;;;;;;;;19.80;37.80;;;;;;477109;249;1144;-54
2021/03/02 05:15:56;;;;;;;;;;;19.80;37.80;;;;;;477113;250;1060;-54
2021/03/02 05:17:58;;;;;;;;;;;19.80;37.80;;;;;;477111;249;1061;-54
2021/03/02 05:19:59;;;;;;;;;;;19.80;37.80;;;;;;477128;250;1064;-54
2021/03/02 05:22:00;;;;;;;;;;;19.80;37.80;;;;;;477156;249;1108;-54
2021/03/02 05:24:02;;;;;;;;;;;19.80;37.80;;;;;;477135;249;1280;-53
2021/03/02 05:26:03;;;;;;;;;;;19.80;37.80;;;;;;477073;250;1010;-54
2021/03/02 05:28:04;;;;;;;;;;;19.80;37.80;;;;;;477128;249;2135;-54
2021/03/02 05:30:05;;;;;;;;;;;19.80;37.80;;;;;;477100;249;1204;-54
2021/03/02 05:32:07;;;;;;;;;;;19.80;37.80;;;;;;476981;249;1138;-54
2021/03/02 05:34:08;;;;;;;;;;;19.80;36.40;;;;;;476992;249;1067;-54
2021/03/02 05:36:09;;;;;;;;;;;19.80;37.70;;;;;;476867;250;1051;-54
2021/03/02 05:38:11;;;;;;;;;;;19.80;37.70;;;;;;477001;250;1104;-54
2021/03/02 05:40:12;;;;;;;;;;;19.80;37.70;;;;;;477069;249;1047;-54
2021/03/02 05:42:13;;;;;;;;;;;19.80;37.70;;;;;;477017;249;1035;-54
2021/03/02 05:44:14;;;;;;;;;;;19.80;37.70;;;;;;477014;249;1176;-54
2021/03/02 05:46:16;;;;;;;;;;;19.80;37.70;;;;;;476946;249;1010;-54
2021/03/02 05:48:17;;;;;;;;;;;19.80;37.70;;;;;;476652;249;2196;-54
2021/03/02 05:50:18;;;;;;;;;;;19.80;37.70;;;;;;476794;250;1098;-54
2021/03/02 05:52:20;;;;;;;;;;;19.90;37.70;;;;;;476793;250;1060;-54
2021/03/02 05:54:21;;;;;;;;;;;19.90;37.70;;;;;;476970;250;1077;-53
2021/03/02 05:56:22;;;;;;;;;;;19.90;37.70;;;;;;476943;250;1421;-54
2021/03/02 05:58:23;;;;;;;;;;;19.90;37.70;;;;;;476849;249;1080;-53
2021/03/02 06:00:25;;;;;;;;;;;19.90;37.70;;;;;;476845;249;1146;-54
2021/03/02 06:02:26;;;;;;;;;;;19.90;37.70;;;;;;476835;250;1104;-54
2021/03/02 06:04:27;;;;;;;;;;;19.90;37.70;;;;;;476930;249;1104;-54
2021/03/02 06:06:28;;;;;;;;;;;19.90;36.30;;;;;;476859;249;1065;-54
2021/03/02 06:08:30;;;;;;;;;;;19.90;37.70;;;;;;476869;250;2179;-54
2021/03/02 06:10:31;;;;;;;;;;;19.90;37.70;;;;;;476849;250;1056;-54
2021/03/02 06:12:32;;;;;;;;;;;19.80;37.70;;;;;;476912;249;991;-54
2021/03/02 06:14:34;;;;;;;;;;;19.90;37.70;;;;;;476955;249;1243;-54
2021/03/02 06:16:35;;;;;;;;;;;19.90;37.70;;;;;;476819;250;1732;-54
2021/03/02 06:18:36;;;;;;;;;;;19.90;37.70;;;;;;476669;250;1120;-53
2021/03/02 06:20:37;;;;;;;;;;;19.90;37.70;;;;;;476737;250;1104;-54
2021/03/02 06:22:39;;;;;;;;;;;19.90;37.70;;;;;;476736;249;1239;-54
2021/03/02 06:24:40;;;;;;;;;;;19.90;37.60;;;;;;476765;250;1071;-54
2021/03/02 06:26:41;;;;;;;;;;;19.90;37.60;;;;;;476791;250;1374;-54
2021/03/02 06:28:43;;;;;;;;;;;19.90;36.40;;;;;;476759;250;2121;-54
2021/03/02 06:30:44;;;;;;;;;;;19.90;37.70;;;;;;476812;249;1126;-54
2021/03/02 06:32:45;;;;;;;;;;;19.90;36.30;;;;;;476692;250;1285;-54
2021/03/02 06:34:46;;;;;;;;;;;19.90;37.60;;;;;;476827;249;1174;-54
2021/03/02 06:36:48;;;;;;;;;;;19.90;37.60;;;;;;476727;249;1137;-54
2021/03/02 06:38:49;;;;;;;;;;;19.90;37.60;;;;;;476605;249;1054;-54
2021/03/02 06:40:50;;;;;;;;;;;19.90;37.60;;;;;;476638;250;1104;-54
2021/03/02 06:42:52;;;;;;;;;;;19.90;37.60;;;;;;476749;249;1354;-54
2021/03/02 06:44:53;;;;;;;;;;;19.90;37.60;;;;;;476827;249;1148;-53
2021/03/02 06:46:54;;;;;;;;;;;19.90;37.60;;;;;;476760;249;2132;-53
2021/03/02 06:48:56;;;;;;;;;;;19.90;36.30;;;;;;476624;249;1153;-54
2021/03/02 06:50:57;;;;;;;;;;;19.90;37.60;;;;;;476690;249;1065;-54
2021/03/02 06:52:58;;;;;;;;;;;19.90;37.60;;;;;;476570;249;1274;-54
2021/03/02 06:55:00;;;;;;;;;;;19.90;37.60;;;;;;476534;249;1086;-54
2021/03/02 06:57:03;;;;;;;;;;;19.90;37.60;;;;;;476450;250;1127;-53
2021/03/02 06:59:02;;;;;;;;;;;19.90;37.60;;;;;;476335;249;1468;-54
2021/03/02 07:01:04;;;;;;;;;;;19.90;37.50;;;;;;476693;249;1171;-54
2021/03/02 07:03:05;;;;;;;;;;;19.90;37.60;;;;;;476641;249;1274;-54
2021/03/02 07:05:06;;;;;;;;;;;19.90;37.60;;;;;;476697;250;1304;-54
2021/03/02 07:07:14;;;;;;;;;;;20.00;37.60;;;;;;476690;249;2143;-54
2021/03/02 07:09:09;;;;;;;;;;;19.90;37.50;;;;;;476354;249;2249;-54
2021/03/02 07:11:10;;;;;;;;;;;19.90;37.60;;;;;;476528;250;1083;-54
2021/03/02 07:13:13;;;;;;;;;;;19.90;37.60;;;;;;476554;249;1225;-54
2021/03/02 07:15:13;;;;;;;;;;;19.90;37.60;;;;;;476480;249;1899;-54
2021/03/02 07:17:14;;;;;;;;;;;20.00;37.60;;;;;;476404;250;1072;-54
2021/03/02 07:19:15;;;;;;;;;;;20.00;37.60;;;;;;476558;249;1160;-54
2021/03/02 07:21:17;;;;;;;;;;;20.00;37.60;;;;;;476694;249;1171;-54
2021/03/02 07:23:18;;;;;;;;;;;20.00;37.60;;;;;;476594;249;1063;-54
2021/03/02 07:25:19;;;;;;;;;;;20.00;37.60;;;;;;476418;250;1087;-54
2021/03/02 07:27:21;;;;;;;;;;;19.90;37.50;;;;;;476349;249;2195;-54
2021/03/02 07:29:22;;;;;;;;;;;20.00;36.30;;;;;;476384;249;2287;-54
2021/03/02 07:31:23;;;;;;;;;;;20.00;37.60;;;;;;476333;249;1166;-53
2021/03/02 07:33:24;;;;;;;;;;;20.00;36.30;;;;;;476323;249;1479;-54
2021/03/02 07:35:26;;;;;;;;;;;20.00;37.60;;;;;;476369;249;1247;-54
2021/03/02 07:37:27;;;;;;;;;;;20.00;36.20;;;;;;476358;249;1122;-54
2021/03/02 07:39:29;;;;;;;;;;;20.00;36.20;;;;;;476474;249;1192;-53
2021/03/02 07:41:30;;;;;;;;;;;20.00;37.50;;;;;;476332;249;1073;-54
2021/03/02 07:43:31;;;;;;;;;;;20.00;37.60;;;;;;476307;250;1062;-54
2021/03/02 07:45:38;;;;;;;;;;;20.00;36.20;;;;;;507833;234;1040;-55
2021/03/02 07:47:39;;;;;;;;;;;20.00;36.20;;;;;;499764;238;1171;-54
2021/03/02 07:49:40;;;;;;;;;;;20.00;37.60;;;;;;499846;237;1083;-55
2021/03/02 07:51:42;;;;;;;;;;;20.00;37.60;;;;;;499792;237;1192;-55
2021/03/02 07:53:43;;;;;;;;;;;20.00;37.50;;;;;;499968;237;1144;-54
2021/03/02 07:55:44;;;;;;;;;;;20.00;37.50;;;;;;499883;237;1081;-54
2021/03/02 07:57:46;;;;;;;;;;;20.00;37.50;;;;;;499743;237;1099;-54
2021/03/02 07:59:48;;;;;;;;;;;20.00;37.50;;;;;;499786;237;1199;-54
2021/03/02 08:01:49;;;;;;;;;;;20.00;37.50;;;;;;499585;237;1133;-54
2021/03/02 08:03:50;;;;;;;;;;;20.00;37.60;;;;;;499423;237;2120;-54
2021/03/02 08:05:51;;;;;;;;;;;20.00;37.50;;;;;;499696;237;1225;-54
2021/03/02 08:07:52;;;;;;;;;;;20.00;37.50;;;;;;499626;237;1220;-55
2021/03/02 08:09:54;;;;;;;;;;;20.00;37.50;;;;;;499713;237;1059;-55
2021/03/02 08:11:55;;;;;;;;;;;20.00;37.50;;;;;;499689;237;1057;-55
2021/03/02 08:13:57;;;;;;;;;;;20.00;37.50;;;;;;499762;237;1082;-55
2021/03/02 08:15:58;;;;;;;;;;;20.00;36.20;;;;;;499722;237;1174;-55
2021/03/02 08:17:59;;;;;;;;;;;20.00;37.50;;;;;;499647;237;1258;-54
2021/03/02 08:20:00;;;;;;;;;;;20.00;37.50;;;;;;499622;237;1273;-54
2021/03/02 08:22:02;;;;;;;;;;;20.00;37.50;;;;;;499593;237;1316;-54
2021/03/02 08:24:04;;;;;;;;;;;20.00;37.50;;;;;;499560;237;2172;-54
2021/03/02 08:26:05;;;;;;;;;;;20.10;37.50;;;;;;499504;237;1168;-54
2021/03/02 08:28:06;;;;;;;;;;;20.10;37.70;;;;;;499557;237;1125;-54
2021/03/02 08:30:07;;;;;;;;;;;20.10;37.40;;;;;;499635;234;1278;-55
2021/03/02 08:32:11;;;;;;;;;;;20.10;37.40;;;;;;499733;237;1127;-54
2021/03/02 08:34:10;;;;;;;;;;;20.00;36.20;;;;;;499539;237;2531;-54
2021/03/02 08:36:11;;;;;;;;;;;20.00;37.60;;;;;;499571;237;1073;-54
2021/03/02 08:38:12;;;;;;;;;;;19.90;37.70;;;;;;499743;237;1158;-54
2021/03/02 08:40:14;;;;;;;;;;;19.90;37.80;;;;;;499780;237;1234;-55
2021/03/02 08:42:15;;;;;;;;;;;19.80;37.80;;;;;;499687;237;1779;-54
2021/03/02 08:44:16;;;;;;;;;;;19.70;38.00;;;;;;499475;237;2117;-54
2021/03/02 08:46:18;;;;;;;;;;;19.70;38.10;;;;;;499452;237;1228;-54
2021/03/02 08:48:19;;;;;;;;;;;19.60;36.90;;;;;;499551;237;1119;-54
2021/03/02 08:50:20;;;;;;;;;;;19.60;38.30;;;;;;499398;237;1097;-54
2021/03/02 08:52:21;;;;;;;;;;;19.50;38.40;;;;;;499337;237;1184;-54
2021/03/02 08:54:23;;;;;;;;;;;19.40;38.40;;;;;;499595;237;1050;-54
2021/03/02 08:56:24;;;;;;;;;;;19.40;38.50;;;;;;499462;237;1390;-54
2021/03/02 08:58:25;;;;;;;;;;;19.40;38.60;;;;;;499481;237;1129;-54
2021/03/02 09:00:27;;;;;;;;;;;19.30;38.60;;;;;;499416;237;1200;-54
2021/03/02 09:02:28;;;;;;;;;;;19.30;38.70;;;;;;500280;237;1143;-54
2021/03/02 09:04:29;;;;;;;;;;;19.20;38.70;;;;;;500256;237;2195;-54
2021/03/02 09:06:30;;;;;;;;;;;19.20;38.80;;;;;;500097;237;1167;-54
2021/03/02 09:08:32;;;;;;;;;;;19.20;38.90;;;;;;499918;237;1219;-54
2021/03/02 09:10:33;;;;;;;;;;;19.10;38.90;;;;;;499587;237;1075;-54
2021/03/02 09:12:34;;;;;;;;;;;19.10;39.00;;;;;;499597;237;1194;-54
2021/03/02 09:14:37;;;;;;;;;;;19.10;39.00;;;;;;499431;237;1081;-54
2021/03/02 09:16:37;;;;;;;;;;;19.10;39.10;;;;;;499792;237;1792;-54
2021/03/02 09:18:39;;;;;;;;;;;19.00;39.10;;;;;;499392;237;1029;-54
2021/03/02 09:20:40;;;;;;;;;;;19.00;39.10;;;;;;499394;237;1107;-54
2021/03/02 09:22:41;;;;;;;;;;;19.00;39.20;;;;;;499183;237;2029;-54
2021/03/02 09:24:43;;;;;;;;;;;18.90;39.10;;;;;;499460;237;2175;-54
2021/03/02 09:26:44;;;;;;;;;;;18.90;39.20;;;;;;499502;237;1158;-54
2021/03/02 09:28:45;;;;;;;;;;;18.90;39.20;;;;;;500049;237;1049;-54
2021/03/02 09:30:47;;;;;;;;;;;18.90;39.30;;;;;;499423;237;1298;-54
2021/03/02 09:32:48;;;;;;;;;;;18.80;38.00;;;;;;499334;237;1172;-54
2021/03/02 09:34:49;;;;;;;;;;;18.90;38.00;;;;;;499418;237;1140;-54
2021/03/02 09:36:51;;;;;;;;;;;18.80;39.30;;;;;;499467;237;1173;-54
2021/03/02 09:38:52;;;;;;;;;;;18.80;39.30;;;;;;499559;237;1209;-54
2021/03/02 09:40:53;;;;;;;;;;;18.80;39.30;;;;;;499351;237;1272;-54
2021/03/02 09:42:54;;;;;;;;;;;18.80;39.30;;;;;;499543;237;1241;-54
2021/03/02 09:44:56;;;;;;;;;;;18.80;39.40;;;;;;499531;237;2174;-54
2021/03/02 09:46:57;;;;;;;;;;;18.70;39.30;;;;;;499533;237;1139;-54
2021/03/02 09:48:58;;;;;;;;;;;18.70;39.40;;;;;;499553;237;1147;-54
2021/03/02 09:51:00;;;;;;;;;;;18.70;38.10;;;;;;499260;237;1286;-54
2021/03/02 09:53:01;;;;;;;;;;;18.70;38.10;;;;;;499354;237;1212;-54
2021/03/02 09:55:03;;;;;;;;;;;18.70;39.50;;;;;;499617;237;1232;-54
2021/03/02 09:57:03;;;;;;;;;;;18.70;38.20;;;;;;499485;237;1311;-54
2021/03/02 09:59:05;;;;;;;;;;;18.70;39.50;;;;;;499468;237;1165;-54
2021/03/02 10:01:06;;;;;;;;;;;18.60;38.10;;;;;;499258;237;1280;-54
2021/03/02 10:03:07;;;;;;;;;;;18.70;39.50;;;;;;499407;237;1094;-54
2021/03/02 10:05:09;;;;;;;;;;;18.70;38.20;;;;;;499395;237;2236;-54
2021/03/02 10:07:10;;;;;;;;;;;18.60;39.40;;;;;;499359;237;1202;-54
2021/03/02 10:09:11;;;;;;;;;;;18.70;39.50;;;;;;499630;237;1277;-54
2021/03/02 10:11:12;;;;;;;;;;;18.70;38.10;;;;;;499485;237;1195;-54
2021/03/02 10:13:14;;;;;;;;;;;18.60;38.10;;;;;;499631;237;1045;-54
2021/03/02 10:15:15;;;;;;;;;;;18.70;39.40;;;;;;499587;237;1080;-54
2021/03/02 10:17:16;;;;;;;;;;;18.60;39.40;;;;;;499596;237;1186;-54
2021/03/02 10:19:18;;;;;;;;;;;18.60;38.10;;;;;;499582;237;1085;-54
2021/03/02 10:21:19;;;;;;;;;;;18.70;38.10;;;;;;499514;237;1223;-54
2021/03/02 10:23:20;;;;;;;;;;;18.60;39.40;;;;;;499471;237;1127;-54
2021/03/02 10:25:21;;;;;;;;;;;18.60;39.40;;;;;;499536;237;2128;-54
2021/03/02 10:27:23;;;;;;;;;;;18.60;38.10;;;;;;499435;237;1198;-54
2021/03/02 10:29:24;;;;;;;;;;;18.60;38.10;;;;;;499376;237;1192;-54
2021/03/02 10:31:26;;;;;;;;;;;18.60;39.40;;;;;;499195;237;1206;-54
2021/03/02 10:33:27;;;;;;;;;;;18.60;39.40;;;;;;499141;237;1070;-54
2021/03/02 10:35:28;;;;;;;;;;;18.60;39.40;;;;;;499156;237;1170;-54
2021/03/02 10:37:29;;;;;;;;;;;18.60;39.30;;;;;;499151;237;1262;-54
2021/03/02 10:39:31;;;;;;;;;;;18.60;38.00;;;;;;499388;237;1130;-54
2021/03/02 10:41:32;;;;;;;;;;;18.60;39.30;;;;;;499335;237;1403;-54
2021/03/02 10:43:34;;;;;;;;;;;18.60;39.30;;;;;;499460;237;1136;-54
2021/03/02 10:45:35;;;;;;;;;;;18.60;39.30;;;;;;499536;237;2137;-54
2021/03/02 10:47:36;;;;;;;;;;;18.60;39.20;;;;;;499515;237;1269;-54
2021/03/02 10:49:38;;;;;;;;;;;18.70;39.30;;;;;;499227;237;1312;-54
2021/03/02 10:51:39;;;;;;;;;;;18.70;38.00;;;;;;499249;237;1033;-54
2021/03/02 10:53:40;;;;;;;;;;;18.70;39.30;;;;;;499401;237;1116;-54
2021/03/02 10:55:42;;;;;;;;;;;18.60;39.20;;;;;;499433;237;1092;-54
2021/03/02 10:57:43;;;;;;;;;;;18.70;39.30;;;;;;499452;237;1052;-54
2021/03/02 10:59:44;;;;;;;;;;;18.70;39.30;;;;;;499456;237;1039;-54
2021/03/02 11:01:46;;;;;;;;;;;18.70;39.30;;;;;;499424;237;1207;-54
2021/03/02 11:03:47;;;;;;;;;;;18.70;39.30;;;;;;499375;237;1102;-53
2021/03/02 11:05:49;;;;;;;;;;;18.60;39.30;;;;;;499341;237;2188;-54
2021/03/02 11:07:50;;;;;;;;;;;18.60;39.40;;;;;;499127;237;1105;-54
2021/03/02 11:09:51;;;;;;;;;;;18.60;38.30;;;;;;499217;237;1110;-54
2021/03/02 11:11:52;;;;;;;;;;;18.60;39.60;;;;;;499069;237;1169;-54
2021/03/02 11:13:54;;;;;;;;;;;18.50;39.60;;;;;;499327;237;1316;-54
2021/03/02 11:15:55;;;;;;;;;;;18.50;39.70;;;;;;499291;237;1235;-54
2021/03/02 11:17:56;;;;;;;;;;;18.50;39.70;;;;;;499301;237;1227;-54
2021/03/02 11:19:57;;;;;;;;;;;18.50;39.70;;;;;;499280;237;1113;-54
2021/03/02 11:21:59;;;;;;;;;;;18.40;39.70;;;;;;499495;237;1192;-54
2021/03/02 11:24:00;;;;;;;;;;;18.50;39.80;;;;;;499709;237;853;-54
2021/03/02 11:26:01;;;;;;;;;;;18.40;39.80;;;;;;499658;237;2179;-54
2021/03/02 11:28:03;;;;;;;;;;;18.40;39.90;;;;;;500197;237;1091;-54
2021/03/02 11:30:04;;;;;;;;;;;18.40;39.90;;;;;;499684;237;848;-54
2021/03/02 11:32:05;;;;;;;;;;;18.30;39.90;;;;;;499872;237;1045;-54
2021/03/02 11:34:06;;;;;;;;;;;18.30;39.90;;;;;;499727;237;1083;-54
2021/03/02 11:36:08;;;;;;;;;;;18.30;40.00;;;;;;499378;237;1314;-53
2021/03/02 11:38:09;;;;;;;;;;;18.30;38.70;;;;;;499372;237;1070;-54
2021/03/02 11:40:10;;;;;;;;;;;18.30;39.90;;;;;;499395;237;1102;-54
2021/03/02 11:42:12;;;;;;;;;;;18.30;38.70;;;;;;499476;237;1137;-54
2021/03/02 11:44:13;;;;;;;;;;;18.30;40.00;;;;;;499430;237;1103;-54
2021/03/02 11:46:14;;;;;;;;;;;18.30;40.00;;;;;;498996;237;2124;-54
2021/03/02 11:48:15;;;;;;;;;;;18.30;40.10;;;;;;499370;237;1198;-54
2021/03/02 11:50:17;;;;;;;;;;;18.20;38.70;;;;;;499419;237;1125;-54
2021/03/02 11:52:18;;;;;;;;;;;18.20;40.10;;;;;;499460;237;1217;-54
2021/03/02 11:54:20;;;;;;;;;;;18.20;38.80;;;;;;499285;237;1078;-54
2021/03/02 11:56:20;;;;;;;;;;;18.20;40.10;;;;;;499352;237;1300;-54